sensor_id;sensor_type;location;lat;lon;timestamp;temperature;humidity
5689;DHT22;2869;50.432;8.680;2022-09-06T00:00:53;18.50;99.90
5689;DHT22;2869;50.432;8.680;2022-09-06T00:03:20;18.50;99.90
5689;DHT22;2869;50.432;8.680;2022-09-06T00:05:47;18.50;99.90
5689;DHT22;2869;50.432;8.680;2022-09-06T00:08:14;18.40;99.90
5689;DHT22;2869;50.432;8.680;2022-09-06T00:10:42;18.40;99.90
5689;DHT22;2869;50.432;8.680;2022-09-06T00:13:09;18.30;99.90
5689;DHT22;2869;50.432;8.680;2022-09-06T00:15:36;18.40;99.90
5689;DHT22;2869;50.432;8.680;2022-09-06T00:18:05;18.40;99.90
5689;DHT22;2869;50.432;8.680;2022-09-06T00:20:33;18.40;99.90
5689;DHT22;2869;50.432;8.680;2022-09-06T00:23:01;18.40;99.90
5689;DHT22;2869;50.432;8.680;2022-09-06T00:25:28;18.40;99.90
5689;DHT22;2869;50.432;8.680;2022-09-06T00:27:59;18.50;99.90
5689;DHT22;2869;50.432;8.680;2022-09-06T00:30:26;18.50;99.90
5689;DHT22;2869;50.432;8.680;2022-09-06T00:32:54;18.50;99.90
5689;DHT22;2869;50.432;8.680;2022-09-06T00:35:21;18.60;99.90
5689;DHT22;2869;50.432;8.680;2022-09-06T00:37:49;18.50;99.90
5689;DHT22;2869;50.432;8.680;2022-09-06T00:40:16;18.50;99.90
5689;DHT22;2869;50.432;8.680;2022-09-06T00:42:43;18.40;99.90
5689;DHT22;2869;50.432;8.680;2022-09-06T00:45:12;18.30;99.90
5689;DHT22;2869;50.432;8.680;2022-09-06T00:47:40;18.30;99.90
5689;DHT22;2869;50.432;8.680;2022-09-06T00:50:09;18.30;99.90
5689;DHT22;2869;50.432;8.680;2022-09-06T00:52:37;18.30;99.90
5689;DHT22;2869;50.432;8.680;2022-09-06T00:55:05;18.30;99.90
5689;DHT22;2869;50.432;8.680;2022-09-06T00:57:33;18.30;99.90
5689;DHT22;2869;50.432;8.680;2022-09-06T01:00:00;18.30;99.90
5689;DHT22;2869;50.432;8.680;2022-09-06T01:02:28;18.30;99.90
5689;DHT22;2869;50.432;8.680;2022-09-06T01:04:55;18.30;99.90
5689;DHT22;2869;50.432;8.680;2022-09-06T01:07:32;18.30;99.90
5689;DHT22;2869;50.432;8.680;2022-09-06T01:13:13;18.30;99.90
5689;DHT22;2869;50.432;8.680;2022-09-06T01:15:48;18.30;99.90
5689;DHT22;2869;50.432;8.680;2022-09-06T01:18:27;18.30;99.90
5689;DHT22;2869;50.432;8.680;2022-09-06T01:21:04;18.30;99.90
5689;DHT22;2869;50.432;8.680;2022-09-06T01:23:54;18.30;99.90
5689;DHT22;2869;50.432;8.680;2022-09-06T01:27:02;18.30;99.90
5689;DHT22;2869;50.432;8.680;2022-09-06T01:29:35;18.30;99.90
5689;DHT22;2869;50.432;8.680;2022-09-06T01:32:13;18.30;99.90
5689;DHT22;2869;50.432;8.680;2022-09-06T01:34:46;18.30;99.90
5689;DHT22;2869;50.432;8.680;2022-09-06T01:37:16;18.30;99.90
5689;DHT22;2869;50.432;8.680;2022-09-06T01:39:44;18.40;99.90
5689;DHT22;2869;50.432;8.680;2022-09-06T01:42:14;18.40;99.90
5689;DHT22;2869;50.432;8.680;2022-09-06T01:44:46;18.40;99.90
5689;DHT22;2869;50.432;8.680;2022-09-06T01:47:21;18.40;99.90
5689;DHT22;2869;50.432;8.680;2022-09-06T01:52:50;18.40;99.90
5689;DHT22;2869;50.432;8.680;2022-09-06T01:55:27;18.40;99.90
5689;DHT22;2869;50.432;8.680;2022-09-06T01:58:09;18.40;99.90
5689;DHT22;2869;50.432;8.680;2022-09-06T02:00:46;18.40;99.90
5689;DHT22;2869;50.432;8.680;2022-09-06T02:03:18;18.40;99.90
5689;DHT22;2869;50.432;8.680;2022-09-06T02:05:50;18.30;99.90
5689;DHT22;2869;50.432;8.680;2022-09-06T02:08:22;18.30;99.90
5689;DHT22;2869;50.432;8.680;2022-09-06T02:10:55;18.30;99.90
5689;DHT22;2869;50.432;8.680;2022-09-06T02:13:24;18.30;99.90
5689;DHT22;2869;50.432;8.680;2022-09-06T02:15:57;18.30;99.90
5689;DHT22;2869;50.432;8.680;2022-09-06T02:18:28;18.30;99.90
5689;DHT22;2869;50.432;8.680;2022-09-06T02:20:57;18.30;99.90
5689;DHT22;2869;50.432;8.680;2022-09-06T02:23:27;18.20;99.90
5689;DHT22;2869;50.432;8.680;2022-09-06T02:25:58;18.30;99.90
5689;DHT22;2869;50.432;8.680;2022-09-06T02:28:26;18.30;99.90
5689;DHT22;2869;50.432;8.680;2022-09-06T02:30:57;18.30;99.90
5689;DHT22;2869;50.432;8.680;2022-09-06T02:33:27;18.40;99.90
5689;DHT22;2869;50.432;8.680;2022-09-06T02:35:56;18.50;99.90
5689;DHT22;2869;50.432;8.680;2022-09-06T02:38:27;18.60;99.90
5689;DHT22;2869;50.432;8.680;2022-09-06T02:40:55;18.70;99.90
5689;DHT22;2869;50.432;8.680;2022-09-06T02:43:22;18.90;99.90
5689;DHT22;2869;50.432;8.680;2022-09-06T02:45:48;19.30;99.90
5689;DHT22;2869;50.432;8.680;2022-09-06T02:48:16;19.50;99.90
5689;DHT22;2869;50.432;8.680;2022-09-06T02:50:43;19.60;99.90
5689;DHT22;2869;50.432;8.680;2022-09-06T02:53:12;19.70;99.90
5689;DHT22;2869;50.432;8.680;2022-09-06T02:55:39;19.80;99.90
5689;DHT22;2869;50.432;8.680;2022-09-06T02:58:08;19.80;99.90
5689;DHT22;2869;50.432;8.680;2022-09-06T03:00:35;19.90;99.90
5689;DHT22;2869;50.432;8.680;2022-09-06T03:03:02;19.90;99.90
5689;DHT22;2869;50.432;8.680;2022-09-06T03:05:30;20.00;99.90
5689;DHT22;2869;50.432;8.680;2022-09-06T03:07:57;20.00;99.90
5689;DHT22;2869;50.432;8.680;2022-09-06T03:10:24;20.00;99.90
5689;DHT22;2869;50.432;8.680;2022-09-06T03:12:51;20.00;99.90
5689;DHT22;2869;50.432;8.680;2022-09-06T03:15:18;20.00;99.90
5689;DHT22;2869;50.432;8.680;2022-09-06T03:17:44;19.90;99.90
5689;DHT22;2869;50.432;8.680;2022-09-06T03:20:11;19.90;99.90
5689;DHT22;2869;50.432;8.680;2022-09-06T03:22:40;19.80;99.90
5689;DHT22;2869;50.432;8.680;2022-09-06T03:25:08;19.80;99.90
5689;DHT22;2869;50.432;8.680;2022-09-06T03:27:34;19.70;99.90
5689;DHT22;2869;50.432;8.680;2022-09-06T03:30:02;19.60;99.90
5689;DHT22;2869;50.432;8.680;2022-09-06T03:32:28;19.60;99.90
5689;DHT22;2869;50.432;8.680;2022-09-06T03:34:55;19.60;99.90
5689;DHT22;2869;50.432;8.680;2022-09-06T03:37:22;19.60;99.90
5689;DHT22;2869;50.432;8.680;2022-09-06T03:39:50;19.60;99.90
5689;DHT22;2869;50.432;8.680;2022-09-06T03:42:17;19.60;99.90
5689;DHT22;2869;50.432;8.680;2022-09-06T03:44:43;19.60;99.90
5689;DHT22;2869;50.432;8.680;2022-09-06T03:47:10;19.60;99.90
5689;DHT22;2869;50.432;8.680;2022-09-06T03:49:36;19.60;99.90
5689;DHT22;2869;50.432;8.680;2022-09-06T03:52:04;19.50;99.90
5689;DHT22;2869;50.432;8.680;2022-09-06T03:54:30;19.50;99.90
5689;DHT22;2869;50.432;8.680;2022-09-06T03:56:58;19.50;99.90
5689;DHT22;2869;50.432;8.680;2022-09-06T03:59:25;19.50;99.90
5689;DHT22;2869;50.432;8.680;2022-09-06T04:01:52;19.50;99.90
5689;DHT22;2869;50.432;8.680;2022-09-06T04:04:18;19.50;99.90
5689;DHT22;2869;50.432;8.680;2022-09-06T04:06:45;19.50;99.90
5689;DHT22;2869;50.432;8.680;2022-09-06T04:09:12;19.40;99.90
5689;DHT22;2869;50.432;8.680;2022-09-06T04:11:39;19.30;99.90
5689;DHT22;2869;50.432;8.680;2022-09-06T04:14:07;19.30;99.90
5689;DHT22;2869;50.432;8.680;2022-09-06T04:16:34;19.20;99.90
5689;DHT22;2869;50.432;8.680;2022-09-06T04:19:01;19.10;99.90
5689;DHT22;2869;50.432;8.680;2022-09-06T04:21:28;19.10;99.90
5689;DHT22;2869;50.432;8.680;2022-09-06T04:23:55;19.10;99.90
5689;DHT22;2869;50.432;8.680;2022-09-06T04:26:22;19.00;99.90
5689;DHT22;2869;50.432;8.680;2022-09-06T04:28:49;18.90;99.90
5689;DHT22;2869;50.432;8.680;2022-09-06T04:31:17;18.90;99.90
5689;DHT22;2869;50.432;8.680;2022-09-06T04:33:43;18.90;99.90
5689;DHT22;2869;50.432;8.680;2022-09-06T04:36:11;18.80;99.90
5689;DHT22;2869;50.432;8.680;2022-09-06T04:38:40;18.80;99.90
5689;DHT22;2869;50.432;8.680;2022-09-06T04:41:08;18.70;99.90
5689;DHT22;2869;50.432;8.680;2022-09-06T04:43:35;18.70;99.90
5689;DHT22;2869;50.432;8.680;2022-09-06T04:46:04;18.70;99.90
5689;DHT22;2869;50.432;8.680;2022-09-06T04:48:32;18.70;99.90
5689;DHT22;2869;50.432;8.680;2022-09-06T04:50:58;18.70;99.90
5689;DHT22;2869;50.432;8.680;2022-09-06T04:53:25;18.70;99.90
5689;DHT22;2869;50.432;8.680;2022-09-06T04:55:52;18.70;99.90
5689;DHT22;2869;50.432;8.680;2022-09-06T04:58:18;18.70;99.90
5689;DHT22;2869;50.432;8.680;2022-09-06T05:00:45;18.60;99.90
5689;DHT22;2869;50.432;8.680;2022-09-06T05:03:12;18.60;99.90
5689;DHT22;2869;50.432;8.680;2022-09-06T05:05:40;18.50;99.90
5689;DHT22;2869;50.432;8.680;2022-09-06T05:08:06;18.50;99.90
5689;DHT22;2869;50.432;8.680;2022-09-06T05:10:33;18.50;99.90
5689;DHT22;2869;50.432;8.680;2022-09-06T05:13:00;18.40;99.90
5689;DHT22;2869;50.432;8.680;2022-09-06T05:15:26;18.40;99.90
5689;DHT22;2869;50.432;8.680;2022-09-06T05:18:00;18.40;99.90
5689;DHT22;2869;50.432;8.680;2022-09-06T05:20:27;18.40;99.90
5689;DHT22;2869;50.432;8.680;2022-09-06T05:22:55;18.40;99.90
5689;DHT22;2869;50.432;8.680;2022-09-06T05:25:22;18.50;99.90
5689;DHT22;2869;50.432;8.680;2022-09-06T05:27:48;18.50;99.90
5689;DHT22;2869;50.432;8.680;2022-09-06T05:30:15;18.40;99.90
5689;DHT22;2869;50.432;8.680;2022-09-06T05:32:42;18.50;99.90
5689;DHT22;2869;50.432;8.680;2022-09-06T05:35:09;18.50;99.90
5689;DHT22;2869;50.432;8.680;2022-09-06T05:37:36;18.50;99.90
5689;DHT22;2869;50.432;8.680;2022-09-06T05:40:04;18.60;99.90
5689;DHT22;2869;50.432;8.680;2022-09-06T05:42:31;18.70;99.90
5689;DHT22;2869;50.432;8.680;2022-09-06T05:44:57;18.70;99.90
5689;DHT22;2869;50.432;8.680;2022-09-06T05:47:24;18.70;99.90
5689;DHT22;2869;50.432;8.680;2022-09-06T05:49:52;18.70;99.90
5689;DHT22;2869;50.432;8.680;2022-09-06T05:52:18;18.90;99.90
5689;DHT22;2869;50.432;8.680;2022-09-06T05:54:45;19.00;99.90
5689;DHT22;2869;50.432;8.680;2022-09-06T05:57:13;19.10;99.90
5689;DHT22;2869;50.432;8.680;2022-09-06T05:59:40;19.20;99.90
5689;DHT22;2869;50.432;8.680;2022-09-06T06:02:06;19.40;99.90
5689;DHT22;2869;50.432;8.680;2022-09-06T06:04:33;19.50;99.90
5689;DHT22;2869;50.432;8.680;2022-09-06T06:07:00;19.50;99.90
5689;DHT22;2869;50.432;8.680;2022-09-06T06:09:27;19.50;99.90
5689;DHT22;2869;50.432;8.680;2022-09-06T06:11:53;19.60;99.90
5689;DHT22;2869;50.432;8.680;2022-09-06T06:14:21;20.00;99.90
5689;DHT22;2869;50.432;8.680;2022-09-06T06:16:48;20.80;99.90
5689;DHT22;2869;50.432;8.680;2022-09-06T06:19:15;21.60;99.90
5689;DHT22;2869;50.432;8.680;2022-09-06T06:21:41;22.30;99.90
5689;DHT22;2869;50.432;8.680;2022-09-06T06:24:08;22.80;99.90
5689;DHT22;2869;50.432;8.680;2022-09-06T06:26:36;23.30;99.90
5689;DHT22;2869;50.432;8.680;2022-09-06T06:29:03;23.60;99.90
5689;DHT22;2869;50.432;8.680;2022-09-06T06:31:34;23.80;99.90
5689;DHT22;2869;50.432;8.680;2022-09-06T06:34:01;23.80;99.90
5689;DHT22;2869;50.432;8.680;2022-09-06T06:36:29;24.00;99.90
5689;DHT22;2869;50.432;8.680;2022-09-06T06:38:58;24.10;99.90
5689;DHT22;2869;50.432;8.680;2022-09-06T06:41:26;24.50;99.90
5689;DHT22;2869;50.432;8.680;2022-09-06T06:43:55;24.80;99.90
5689;DHT22;2869;50.432;8.680;2022-09-06T06:46:23;24.90;99.90
5689;DHT22;2869;50.432;8.680;2022-09-06T06:48:51;25.00;99.90
5689;DHT22;2869;50.432;8.680;2022-09-06T06:51:21;24.90;99.90
5689;DHT22;2869;50.432;8.680;2022-09-06T06:53:48;24.70;99.90
5689;DHT22;2869;50.432;8.680;2022-09-06T06:56:16;24.60;99.90
5689;DHT22;2869;50.432;8.680;2022-09-06T06:58:44;24.80;99.90
5689;DHT22;2869;50.432;8.680;2022-09-06T07:01:12;24.80;99.90
5689;DHT22;2869;50.432;8.680;2022-09-06T07:03:39;24.90;99.90
5689;DHT22;2869;50.432;8.680;2022-09-06T07:06:07;24.80;99.90
5689;DHT22;2869;50.432;8.680;2022-09-06T07:08:35;24.70;99.90
5689;DHT22;2869;50.432;8.680;2022-09-06T07:11:03;24.60;99.90
5689;DHT22;2869;50.432;8.680;2022-09-06T07:13:30;24.60;99.90
5689;DHT22;2869;50.432;8.680;2022-09-06T07:16:09;24.40;99.90
5689;DHT22;2869;50.432;8.680;2022-09-06T07:18:36;24.40;99.90
5689;DHT22;2869;50.432;8.680;2022-09-06T07:21:10;24.40;99.90
5689;DHT22;2869;50.432;8.680;2022-09-06T07:23:37;24.50;99.90
5689;DHT22;2869;50.432;8.680;2022-09-06T07:26:05;24.50;99.90
5689;DHT22;2869;50.432;8.680;2022-09-06T07:28:31;24.50;99.90
5689;DHT22;2869;50.432;8.680;2022-09-06T07:30:58;24.50;99.90
5689;DHT22;2869;50.432;8.680;2022-09-06T07:33:26;24.30;99.90
5689;DHT22;2869;50.432;8.680;2022-09-06T07:35:56;24.30;99.90
5689;DHT22;2869;50.432;8.680;2022-09-06T07:38:25;24.70;99.90
5689;DHT22;2869;50.432;8.680;2022-09-06T07:40:52;24.70;99.90
5689;DHT22;2869;50.432;8.680;2022-09-06T07:43:19;24.60;99.90
5689;DHT22;2869;50.432;8.680;2022-09-06T07:45:46;24.60;99.90
5689;DHT22;2869;50.432;8.680;2022-09-06T07:48:12;24.70;99.90
5689;DHT22;2869;50.432;8.680;2022-09-06T07:50:39;24.80;99.90
5689;DHT22;2869;50.432;8.680;2022-09-06T07:53:07;25.20;99.90
5689;DHT22;2869;50.432;8.680;2022-09-06T07:55:35;25.40;99.90
5689;DHT22;2869;50.432;8.680;2022-09-06T07:58:02;25.40;99.90
5689;DHT22;2869;50.432;8.680;2022-09-06T08:00:28;25.30;99.90
5689;DHT22;2869;50.432;8.680;2022-09-06T08:02:56;25.20;99.90
5689;DHT22;2869;50.432;8.680;2022-09-06T08:05:22;25.10;99.90
5689;DHT22;2869;50.432;8.680;2022-09-06T08:07:49;25.50;99.90
5689;DHT22;2869;50.432;8.680;2022-09-06T08:10:16;25.70;99.90
5689;DHT22;2869;50.432;8.680;2022-09-06T08:12:44;25.80;99.90
5689;DHT22;2869;50.432;8.680;2022-09-06T08:15:10;25.80;99.90
5689;DHT22;2869;50.432;8.680;2022-09-06T08:17:37;25.80;99.90
5689;DHT22;2869;50.432;8.680;2022-09-06T08:20:04;25.90;99.90
5689;DHT22;2869;50.432;8.680;2022-09-06T08:22:31;26.00;99.90
5689;DHT22;2869;50.432;8.680;2022-09-06T08:24:58;26.30;99.90
5689;DHT22;2869;50.432;8.680;2022-09-06T08:27:25;26.50;99.90
5689;DHT22;2869;50.432;8.680;2022-09-06T08:29:54;26.70;99.90
5689;DHT22;2869;50.432;8.680;2022-09-06T08:32:21;27.00;99.90
5689;DHT22;2869;50.432;8.680;2022-09-06T08:34:48;26.90;99.90
5689;DHT22;2869;50.432;8.680;2022-09-06T08:37:15;26.90;99.90
5689;DHT22;2869;50.432;8.680;2022-09-06T08:39:41;26.70;99.90
5689;DHT22;2869;50.432;8.680;2022-09-06T08:42:09;26.50;99.90
5689;DHT22;2869;50.432;8.680;2022-09-06T08:44:38;26.70;99.90
5689;DHT22;2869;50.432;8.680;2022-09-06T08:47:08;26.70;99.90
5689;DHT22;2869;50.432;8.680;2022-09-06T08:49:37;26.70;99.90
5689;DHT22;2869;50.432;8.680;2022-09-06T08:52:17;26.60;99.90
5689;DHT22;2869;50.432;8.680;2022-09-06T08:54:53;26.70;99.90
5689;DHT22;2869;50.432;8.680;2022-09-06T08:57:36;26.70;99.90
5689;DHT22;2869;50.432;8.680;2022-09-06T09:00:06;27.00;99.90
5689;DHT22;2869;50.432;8.680;2022-09-06T09:02:41;27.20;99.90
5689;DHT22;2869;50.432;8.680;2022-09-06T09:05:16;27.00;99.90
5689;DHT22;2869;50.432;8.680;2022-09-06T09:07:50;26.90;99.90
5689;DHT22;2869;50.432;8.680;2022-09-06T09:10:22;26.90;99.90
5689;DHT22;2869;50.432;8.680;2022-09-06T09:12:50;27.10;99.90
5689;DHT22;2869;50.432;8.680;2022-09-06T09:15:19;27.10;99.90
5689;DHT22;2869;50.432;8.680;2022-09-06T09:17:49;27.00;99.90
5689;DHT22;2869;50.432;8.680;2022-09-06T09:20:17;27.10;99.90
5689;DHT22;2869;50.432;8.680;2022-09-06T09:22:44;27.20;99.90
5689;DHT22;2869;50.432;8.680;2022-09-06T09:25:17;27.10;99.90
5689;DHT22;2869;50.432;8.680;2022-09-06T09:27:44;27.00;99.90
5689;DHT22;2869;50.432;8.680;2022-09-06T09:30:12;27.30;99.90
5689;DHT22;2869;50.432;8.680;2022-09-06T09:32:41;27.50;99.90
5689;DHT22;2869;50.432;8.680;2022-09-06T09:35:22;27.80;99.90
5689;DHT22;2869;50.432;8.680;2022-09-06T09:37:58;27.90;99.90
5689;DHT22;2869;50.432;8.680;2022-09-06T09:40:32;28.00;99.90
5689;DHT22;2869;50.432;8.680;2022-09-06T09:43:14;28.00;99.90
5689;DHT22;2869;50.432;8.680;2022-09-06T09:45:42;28.10;99.90
5689;DHT22;2869;50.432;8.680;2022-09-06T09:48:22;28.30;99.90
5689;DHT22;2869;50.432;8.680;2022-09-06T09:50:53;28.40;99.90
5689;DHT22;2869;50.432;8.680;2022-09-06T09:53:21;28.50;99.90
5689;DHT22;2869;50.432;8.680;2022-09-06T09:55:49;28.30;99.90
5689;DHT22;2869;50.432;8.680;2022-09-06T09:58:28;28.10;99.90
5689;DHT22;2869;50.432;8.680;2022-09-06T10:01:14;28.10;99.90
5689;DHT22;2869;50.432;8.680;2022-09-06T10:03:42;28.20;99.90
5689;DHT22;2869;50.432;8.680;2022-09-06T10:06:12;28.10;99.90
5689;DHT22;2869;50.432;8.680;2022-09-06T10:08:41;28.10;99.90
5689;DHT22;2869;50.432;8.680;2022-09-06T10:11:11;28.20;99.90
5689;DHT22;2869;50.432;8.680;2022-09-06T10:13:38;28.30;99.90
5689;DHT22;2869;50.432;8.680;2022-09-06T10:16:06;28.50;99.90
5689;DHT22;2869;50.432;8.680;2022-09-06T10:18:35;28.40;99.90
5689;DHT22;2869;50.432;8.680;2022-09-06T10:21:04;28.40;99.90
5689;DHT22;2869;50.432;8.680;2022-09-06T10:23:40;28.50;99.90
5689;DHT22;2869;50.432;8.680;2022-09-06T10:26:15;28.40;99.90
5689;DHT22;2869;50.432;8.680;2022-09-06T10:28:49;28.50;99.90
5689;DHT22;2869;50.432;8.680;2022-09-06T10:31:35;28.50;99.90
5689;DHT22;2869;50.432;8.680;2022-09-06T10:37:07;29.10;99.90
5689;DHT22;2869;50.432;8.680;2022-09-06T10:39:46;29.40;99.90
5689;DHT22;2869;50.432;8.680;2022-09-06T10:42:20;29.30;99.90
5689;DHT22;2869;50.432;8.680;2022-09-06T10:44:59;29.10;99.90
5689;DHT22;2869;50.432;8.680;2022-09-06T10:47:33;29.10;99.90
5689;DHT22;2869;50.432;8.680;2022-09-06T10:50:02;29.10;99.90
5689;DHT22;2869;50.432;8.680;2022-09-06T10:52:33;29.30;99.90
5689;DHT22;2869;50.432;8.680;2022-09-06T10:55:04;29.50;99.90
5689;DHT22;2869;50.432;8.680;2022-09-06T10:57:36;29.50;99.90
5689;DHT22;2869;50.432;8.680;2022-09-06T11:00:08;29.60;99.90
5689;DHT22;2869;50.432;8.680;2022-09-06T11:02:41;29.40;99.90
5689;DHT22;2869;50.432;8.680;2022-09-06T11:05:12;29.30;99.90
5689;DHT22;2869;50.432;8.680;2022-09-06T11:07:43;29.50;99.90
5689;DHT22;2869;50.432;8.680;2022-09-06T11:10:17;29.50;99.90
5689;DHT22;2869;50.432;8.680;2022-09-06T11:12:49;29.60;99.90
5689;DHT22;2869;50.432;8.680;2022-09-06T11:15:20;29.80;99.90
5689;DHT22;2869;50.432;8.680;2022-09-06T11:17:52;29.90;99.90
5689;DHT22;2869;50.432;8.680;2022-09-06T11:20:25;29.80;99.90
5689;DHT22;2869;50.432;8.680;2022-09-06T11:23:28;29.80;99.90
5689;DHT22;2869;50.432;8.680;2022-09-06T11:26:29;29.70;99.90
5689;DHT22;2869;50.432;8.680;2022-09-06T11:29:00;30.00;99.90
5689;DHT22;2869;50.432;8.680;2022-09-06T11:31:30;30.40;99.90
5689;DHT22;2869;50.432;8.680;2022-09-06T11:34:03;30.80;99.90
5689;DHT22;2869;50.432;8.680;2022-09-06T11:36:35;30.80;99.70
5689;DHT22;2869;50.432;8.680;2022-09-06T11:39:04;30.80;99.90
5689;DHT22;2869;50.432;8.680;2022-09-06T11:41:34;30.70;99.90
5689;DHT22;2869;50.432;8.680;2022-09-06T11:44:02;30.70;99.90
5689;DHT22;2869;50.432;8.680;2022-09-06T11:46:58;30.70;99.70
5689;DHT22;2869;50.432;8.680;2022-09-06T11:49:36;30.80;99.40
5689;DHT22;2869;50.432;8.680;2022-09-06T11:55:32;31.00;99.40
5689;DHT22;2869;50.432;8.680;2022-09-06T11:58:04;31.10;99.10
5689;DHT22;2869;50.432;8.680;2022-09-06T12:00:31;31.00;98.60
5689;DHT22;2869;50.432;8.680;2022-09-06T12:02:58;30.90;99.00
5689;DHT22;2869;50.432;8.680;2022-09-06T12:05:27;31.00;99.40
5689;DHT22;2869;50.432;8.680;2022-09-06T12:08:31;30.90;98.70
5689;DHT22;2869;50.432;8.680;2022-09-06T12:14:06;30.80;98.20
5689;DHT22;2869;50.432;8.680;2022-09-06T12:19:58;30.60;98.30
5689;DHT22;2869;50.432;8.680;2022-09-06T12:23:00;30.70;98.10
5689;DHT22;2869;50.432;8.680;2022-09-06T12:25:54;30.40;97.90
5689;DHT22;2869;50.432;8.680;2022-09-06T12:28:33;30.70;97.80
5689;DHT22;2869;50.432;8.680;2022-09-06T12:31:21;30.90;97.90
5689;DHT22;2869;50.432;8.680;2022-09-06T12:33:50;31.10;97.40
5689;DHT22;2869;50.432;8.680;2022-09-06T12:36:21;31.20;97.30
5689;DHT22;2869;50.432;8.680;2022-09-06T12:38:56;31.20;97.20
5689;DHT22;2869;50.432;8.680;2022-09-06T12:41:25;30.80;97.60
5689;DHT22;2869;50.432;8.680;2022-09-06T12:43:52;30.70;97.90
5689;DHT22;2869;50.432;8.680;2022-09-06T12:46:22;30.70;98.10
5689;DHT22;2869;50.432;8.680;2022-09-06T12:49:04;30.90;98.00
5689;DHT22;2869;50.432;8.680;2022-09-06T12:51:31;31.00;97.90
5689;DHT22;2869;50.432;8.680;2022-09-06T12:53:59;30.70;97.50
5689;DHT22;2869;50.432;8.680;2022-09-06T12:56:27;30.50;97.90
5689;DHT22;2869;50.432;8.680;2022-09-06T12:59:13;31.00;98.10
5689;DHT22;2869;50.432;8.680;2022-09-06T13:01:47;31.30;97.30
5689;DHT22;2869;50.432;8.680;2022-09-06T13:04:22;31.20;97.80
5689;DHT22;2869;50.432;8.680;2022-09-06T13:06:50;31.30;97.20
5689;DHT22;2869;50.432;8.680;2022-09-06T13:09:18;31.00;97.10
5689;DHT22;2869;50.432;8.680;2022-09-06T13:11:48;30.50;97.50
5689;DHT22;2869;50.432;8.680;2022-09-06T13:14:20;30.10;98.20
5689;DHT22;2869;50.432;8.680;2022-09-06T13:16:51;29.70;98.30
5689;DHT22;2869;50.432;8.680;2022-09-06T13:19:29;29.30;98.60
5689;DHT22;2869;50.432;8.680;2022-09-06T13:21:57;29.20;98.80
5689;DHT22;2869;50.432;8.680;2022-09-06T13:24:25;29.10;99.00
5689;DHT22;2869;50.432;8.680;2022-09-06T13:26:53;29.00;98.80
5689;DHT22;2869;50.432;8.680;2022-09-06T13:29:24;28.90;99.00
5689;DHT22;2869;50.432;8.680;2022-09-06T13:31:55;28.90;99.10
5689;DHT22;2869;50.432;8.680;2022-09-06T13:34:24;29.20;99.00
5689;DHT22;2869;50.432;8.680;2022-09-06T13:36:54;29.60;98.40
5689;DHT22;2869;50.432;8.680;2022-09-06T13:39:28;29.60;98.30
5689;DHT22;2869;50.432;8.680;2022-09-06T13:42:00;29.50;98.50
5689;DHT22;2869;50.432;8.680;2022-09-06T13:44:28;29.50;98.30
5689;DHT22;2869;50.432;8.680;2022-09-06T13:46:56;29.30;98.50
5689;DHT22;2869;50.432;8.680;2022-09-06T13:49:24;29.20;98.50
5689;DHT22;2869;50.432;8.680;2022-09-06T13:51:52;29.10;98.50
5689;DHT22;2869;50.432;8.680;2022-09-06T13:54:19;29.00;98.70
5689;DHT22;2869;50.432;8.680;2022-09-06T13:56:47;29.00;98.90
5689;DHT22;2869;50.432;8.680;2022-09-06T13:59:14;29.00;98.60
5689;DHT22;2869;50.432;8.680;2022-09-06T14:01:43;29.00;98.80
5689;DHT22;2869;50.432;8.680;2022-09-06T14:04:15;29.20;98.60
5689;DHT22;2869;50.432;8.680;2022-09-06T14:08:22;29.60;97.60
5689;DHT22;2869;50.432;8.680;2022-09-06T14:10:49;29.70;97.90
5689;DHT22;2869;50.432;8.680;2022-09-06T14:13:17;29.60;97.90
5689;DHT22;2869;50.432;8.680;2022-09-06T14:15:44;29.50;98.40
5689;DHT22;2869;50.432;8.680;2022-09-06T14:18:11;29.30;97.60
5689;DHT22;2869;50.432;8.680;2022-09-06T14:20:37;29.10;98.30
5689;DHT22;2869;50.432;8.680;2022-09-06T14:23:05;29.00;97.60
5689;DHT22;2869;50.432;8.680;2022-09-06T14:25:35;29.00;98.30
5689;DHT22;2869;50.432;8.680;2022-09-06T14:28:02;29.00;98.10
5689;DHT22;2869;50.432;8.680;2022-09-06T14:30:29;29.10;97.30
5689;DHT22;2869;50.432;8.680;2022-09-06T14:32:55;29.20;97.50
5689;DHT22;2869;50.432;8.680;2022-09-06T14:35:22;29.20;96.50
5689;DHT22;2869;50.432;8.680;2022-09-06T14:37:49;29.30;96.60
5689;DHT22;2869;50.432;8.680;2022-09-06T14:40:16;29.20;97.10
5689;DHT22;2869;50.432;8.680;2022-09-06T14:42:44;29.10;97.50
5689;DHT22;2869;50.432;8.680;2022-09-06T14:45:11;29.00;97.80
5689;DHT22;2869;50.432;8.680;2022-09-06T14:47:37;28.90;98.10
5689;DHT22;2869;50.432;8.680;2022-09-06T14:50:05;28.80;97.80
5689;DHT22;2869;50.432;8.680;2022-09-06T14:52:31;28.70;97.40
5689;DHT22;2869;50.432;8.680;2022-09-06T14:54:58;28.70;97.60
5689;DHT22;2869;50.432;8.680;2022-09-06T14:57:25;28.70;97.70
5689;DHT22;2869;50.432;8.680;2022-09-06T14:59:53;28.60;97.80
5689;DHT22;2869;50.432;8.680;2022-09-06T15:02:20;28.50;97.70
5689;DHT22;2869;50.432;8.680;2022-09-06T15:04:46;28.50;97.40
5689;DHT22;2869;50.432;8.680;2022-09-06T15:07:13;28.50;97.40
5689;DHT22;2869;50.432;8.680;2022-09-06T15:09:40;28.40;97.70
5689;DHT22;2869;50.432;8.680;2022-09-06T15:12:07;28.50;98.00
5689;DHT22;2869;50.432;8.680;2022-09-06T15:14:33;28.40;97.90
5689;DHT22;2869;50.432;8.680;2022-09-06T15:17:03;28.40;98.00
5689;DHT22;2869;50.432;8.680;2022-09-06T15:19:33;28.50;98.00
5689;DHT22;2869;50.432;8.680;2022-09-06T15:22:00;28.50;98.00
5689;DHT22;2869;50.432;8.680;2022-09-06T15:24:27;28.50;97.90
5689;DHT22;2869;50.432;8.680;2022-09-06T15:26:54;28.50;98.10
5689;DHT22;2869;50.432;8.680;2022-09-06T15:29:21;28.60;99.10
5689;DHT22;2869;50.432;8.680;2022-09-06T15:31:48;28.60;98.80
5689;DHT22;2869;50.432;8.680;2022-09-06T15:34:18;28.50;99.10
5689;DHT22;2869;50.432;8.680;2022-09-06T15:36:44;28.40;99.10
5689;DHT22;2869;50.432;8.680;2022-09-06T15:39:11;28.30;99.00
5689;DHT22;2869;50.432;8.680;2022-09-06T15:41:39;28.30;99.20
5689;DHT22;2869;50.432;8.680;2022-09-06T15:44:07;28.10;99.40
5689;DHT22;2869;50.432;8.680;2022-09-06T15:46:41;28.10;99.60
5689;DHT22;2869;50.432;8.680;2022-09-06T15:49:09;28.00;99.80
5689;DHT22;2869;50.432;8.680;2022-09-06T15:51:38;28.00;99.90
5689;DHT22;2869;50.432;8.680;2022-09-06T15:54:07;27.40;99.90
5689;DHT22;2869;50.432;8.680;2022-09-06T15:56:35;26.80;99.90
5689;DHT22;2869;50.432;8.680;2022-09-06T15:59:02;26.10;99.90
5689;DHT22;2869;50.432;8.680;2022-09-06T16:01:29;25.80;99.90
5689;DHT22;2869;50.432;8.680;2022-09-06T16:03:59;25.40;99.90
5689;DHT22;2869;50.432;8.680;2022-09-06T16:06:29;24.90;99.90
5689;DHT22;2869;50.432;8.680;2022-09-06T16:08:59;24.50;99.90
5689;DHT22;2869;50.432;8.680;2022-09-06T16:11:27;24.30;99.90
5689;DHT22;2869;50.432;8.680;2022-09-06T16:13:54;24.10;99.90
5689;DHT22;2869;50.432;8.680;2022-09-06T16:16:21;24.20;99.90
5689;DHT22;2869;50.432;8.680;2022-09-06T16:18:48;24.10;99.90
5689;DHT22;2869;50.432;8.680;2022-09-06T16:21:17;24.10;99.90
5689;DHT22;2869;50.432;8.680;2022-09-06T16:23:47;24.10;99.90
5689;DHT22;2869;50.432;8.680;2022-09-06T16:26:15;23.80;99.90
5689;DHT22;2869;50.432;8.680;2022-09-06T16:28:42;23.90;99.90
5689;DHT22;2869;50.432;8.680;2022-09-06T16:31:09;23.80;99.90
5689;DHT22;2869;50.432;8.680;2022-09-06T16:33:38;23.60;99.90
5689;DHT22;2869;50.432;8.680;2022-09-06T16:36:06;23.40;99.90
5689;DHT22;2869;50.432;8.680;2022-09-06T16:38:35;23.40;99.90